Caraubas, Brazil
Current Conditions -  °F | °C
As of 5:00 AM on Friday 21 Nov 2014 (Local Time) from SBKG Reporting Station
Broken Clouds Broken Clouds  
Wind Chill: 70°   Ceiling: 1500
Heat Index: 70°   Visibility: 4mi
Dew Point: 68°   Wind: 6mph
Humidity: 94%   Direction: 130°SE
Pressure: 29.97"   Gusts: NA
Location:  5.79°S, 37.56°W
Report Text: SBKG 210800Z 13005KT 6000 BKN015 21/20 Q1015
Loading
Personal Weather Stations






























Interactive Weather Map New forecast layout! Learn more

10-Day Weather Forecast

Advertisements
Track Severe Weather on mobile